Time;durP1;ratioP1;P1;durP2;ratioP2;P2;SDS_P1;SDS_P2;PMS_P1;PMS_P2;Temp;Humidity;BMP_temperature;BMP_pressure;BME280_temperature;BME280_humidity;BME280_pressure;Samples;Min_cycle;Max_cycle;Signal;HPM_P1;HPM_P2
2022/09/13 00:01:19;;;;;;;7.20;6.40;;;19.10;99.90;;;;;;5033099;28;20241;-78
2022/09/13 00:03:46;;;;;;;8.98;5.68;;;19.20;99.90;;;;;;5033239;28;20634;-78
2022/09/13 00:06:14;;;;;;;6.30;5.70;;;19.20;99.90;;;;;;5033101;28;20277;-77
2022/09/13 00:08:42;;;;;;;5.90;5.30;;;19.20;99.90;;;;;;5033014;28;20199;-78
2022/09/13 00:11:16;;;;;;;7.53;6.05;;;19.10;99.90;;;;;;5033131;28;20329;-76
2022/09/13 00:13:45;;;;;;;6.75;5.82;;;19.20;99.90;;;;;;5033651;28;20206;-78
2022/09/13 00:16:13;;;;;;;9.05;5.63;;;19.20;99.90;;;;;;5032837;28;20293;-78
2022/09/13 00:18:40;;;;;;;6.82;4.68;;;19.20;99.90;;;;;;5033283;28;20227;-78
2022/09/13 00:21:09;;;;;;;7.32;4.53;;;19.20;99.90;;;;;;5033286;28;20207;-77
2022/09/13 00:23:36;;;;;;;5.22;4.78;;;19.20;99.90;;;;;;5032726;28;20617;-77
2022/09/13 00:26:05;;;;;;;5.25;3.88;;;19.10;99.90;;;;;;5033162;28;20500;-76
2022/09/13 00:28:32;;;;;;;7.43;4.28;;;19.10;99.90;;;;;;5033015;28;20235;-77
2022/09/13 00:31:01;;;;;;;4.28;3.67;;;19.10;99.90;;;;;;5032021;28;20209;-77
2022/09/13 00:33:28;;;;;;;5.30;3.55;;;19.10;99.90;;;;;;5032515;28;20210;-77
2022/09/13 00:35:55;;;;;;;6.82;4.32;;;19.10;99.90;;;;;;5033352;28;20771;-77
2022/09/13 00:38:22;;;;;;;4.15;3.65;;;19.10;99.90;;;;;;5032563;28;20575;-77
2022/09/13 00:40:49;;;;;;;5.78;3.75;;;19.10;99.90;;;;;;5032198;28;20209;-78
2022/09/13 00:43:18;;;;;;;5.53;3.50;;;19.10;99.90;;;;;;5032796;28;20209;-77
2022/09/13 00:45:46;;;;;;;3.22;2.92;;;19.10;99.90;;;;;;5032244;28;20413;-77
2022/09/13 00:48:20;;;;;;;5.47;3.70;;;19.00;99.90;;;;;;5032436;28;20297;-77
2022/09/13 00:50:51;;;;;;;4.68;3.08;;;19.10;99.90;;;;;;5032901;28;20621;-78
2022/09/13 00:53:21;;;;;;;4.20;3.22;;;19.10;99.90;;;;;;5032307;28;20241;-79
2022/09/13 00:55:53;;;;;;;4.55;3.50;;;19.10;99.90;;;;;;5015254;28;20233;-78
2022/09/13 00:58:23;;;;;;;5.55;3.53;;;19.10;99.90;;;;;;5032252;28;20770;-78
2022/09/13 01:00:51;;;;;;;2.58;2.38;;;19.10;99.90;;;;;;5031835;28;20199;-78
2022/09/13 01:03:21;;;;;;;4.00;2.95;;;19.10;99.90;;;;;;5032540;28;20199;-78
2022/09/13 01:05:52;;;;;;;3.95;3.00;;;19.10;99.90;;;;;;5031100;28;20210;-77
2022/09/13 01:08:21;;;;;;;4.07;3.05;;;19.10;99.90;;;;;;5032678;28;20205;-76
2022/09/13 01:10:50;;;;;;;2.88;2.50;;;19.10;99.90;;;;;;5032521;28;20249;-77
2022/09/13 01:13:20;;;;;;;3.15;2.83;;;19.10;99.90;;;;;;5031233;28;20281;-77
2022/09/13 01:15:47;;;;;;;4.00;3.10;;;19.10;99.90;;;;;;5032396;28;20262;-77
2022/09/13 01:18:15;;;;;;;4.40;3.33;;;19.10;99.90;;;;;;5031446;28;20503;-77
2022/09/13 01:21:14;;;;;;;4.28;3.65;;;19.10;99.90;;;;;;5031822;28;20202;-77
2022/09/13 01:24:14;;;;;;;4.10;3.35;;;19.10;99.90;;;;;;4991177;28;20635;-77
2022/09/13 01:27:23;;;;;;;3.60;3.05;;;19.10;99.90;;;;;;5031097;28;20217;-77
2022/09/13 01:30:10;;;;;;;4.63;3.00;;;19.10;99.90;;;;;;4962485;28;20218;-77
2022/09/13 01:32:58;;;;;;;3.72;3.25;;;19.10;99.90;;;;;;5032335;28;20198;-77
2022/09/13 01:35:38;;;;;;;3.80;3.00;;;19.10;99.90;;;;;;5030936;28;20575;-78
2022/09/13 01:38:17;;;;;;;4.25;3.10;;;19.10;99.90;;;;;;5032670;28;20880;-77
2022/09/13 01:40:57;;;;;;;5.68;3.33;;;19.10;99.90;;;;;;5031078;28;20656;-76
2022/09/13 01:43:33;;;;;;;4.32;2.80;;;19.10;99.90;;;;;;5031792;28;20285;-76
2022/09/13 01:46:08;;;;;;;3.33;3.03;;;19.10;99.90;;;;;;5032304;28;20194;-76
2022/09/13 01:48:47;;;;;;;3.70;2.65;;;19.20;99.90;;;;;;5030964;28;20260;-76
2022/09/13 01:51:27;;;;;;;2.90;2.70;;;19.20;99.90;;;;;;5031276;28;20637;-77
2022/09/13 01:54:04;;;;;;;4.05;2.83;;;19.20;99.90;;;;;;5031628;28;20204;-76
2022/09/13 01:56:38;;;;;;;4.22;2.70;;;19.20;99.90;;;;;;5031175;28;20186;-77
2022/09/13 01:59:11;;;;;;;4.28;2.95;;;19.30;99.90;;;;;;5031384;28;20268;-75
2022/09/13 02:01:44;;;;;;;2.75;2.47;;;19.20;99.90;;;;;;5032025;28;20194;-76
2022/09/13 02:04:15;;;;;;;3.38;3.08;;;19.20;99.90;;;;;;5031509;28;20191;-76
2022/09/13 02:06:46;;;;;;;2.88;2.67;;;19.30;99.90;;;;;;5031858;28;20194;-77
2022/09/13 02:09:17;;;;;;;4.43;2.85;;;19.30;99.90;;;;;;5030167;28;20629;-77
2022/09/13 02:11:48;;;;;;;5.15;2.60;;;19.20;99.90;;;;;;5031647;28;20484;-77
2022/09/13 02:14:19;;;;;;;4.35;2.55;;;19.20;99.90;;;;;;5031157;28;20275;-77
2022/09/13 02:16:52;;;;;;;3.55;2.70;;;19.20;99.90;;;;;;5030386;28;20210;-76
2022/09/13 02:19:22;;;;;;;6.32;2.60;;;19.30;99.90;;;;;;5031159;28;20714;-77
2022/09/13 02:21:56;;;;;;;4.05;2.90;;;19.20;99.90;;;;;;5030902;28;20206;-77
2022/09/13 02:24:28;;;;;;;6.22;2.83;;;19.30;99.90;;;;;;5030771;28;20182;-76
2022/09/13 02:26:59;;;;;;;3.03;2.42;;;19.30;99.90;;;;;;5031196;28;20211;-77
2022/09/13 02:29:28;;;;;;;3.92;2.85;;;19.30;99.90;;;;;;5033334;28;20241;-76
2022/09/13 02:32:02;;;;;;;3.00;2.65;;;19.40;99.90;;;;;;5034075;28;20236;-77
2022/09/13 02:34:34;;;;;;;4.30;2.85;;;19.40;99.90;;;;;;5035154;28;20679;-77
2022/09/13 02:37:02;;;;;;;7.32;2.70;;;19.40;99.90;;;;;;5042835;22;20548;-77
2022/09/13 02:39:32;;;;;;;3.33;3.03;;;19.40;99.90;;;;;;5034154;28;20218;-77
2022/09/13 02:42:06;;;;;;;3.53;2.42;;;19.40;99.90;;;;;;5035047;28;20198;-76
2022/09/13 02:44:36;;;;;;;3.38;3.08;;;19.40;99.90;;;;;;5014805;28;20487;-76
2022/09/13 02:47:15;;;;;;;3.88;2.75;;;19.40;99.90;;;;;;5015273;28;20203;-76
2022/09/13 02:49:55;;;;;;;5.80;3.50;;;19.40;99.90;;;;;;5032780;28;20195;-78
2022/09/13 02:52:32;;;;;;;4.22;2.63;;;19.50;99.90;;;;;;5034739;28;20195;-77
2022/09/13 02:55:11;;;;;;;8.13;3.00;;;19.50;99.90;;;;;;5033983;28;20201;-78
2022/09/13 02:57:42;;;;;;;4.68;3.00;;;19.50;99.90;;;;;;5034829;28;20299;-77
2022/09/13 03:00:10;;;;;;;4.30;2.92;;;19.50;99.90;;;;;;5033563;28;20262;-77
2022/09/13 03:02:41;;;;;;;3.97;2.80;;;19.50;99.90;;;;;;5035028;28;20242;-77
2022/09/13 03:05:08;;;;;;;5.75;3.13;;;19.50;99.90;;;;;;5033218;28;20214;-78
2022/09/13 03:07:35;;;;;;;5.43;2.97;;;19.50;99.90;;;;;;5034740;28;20256;-76
2022/09/13 03:10:06;;;;;;;5.40;3.28;;;19.50;99.90;;;;;;5033370;28;20535;-78
2022/09/13 03:12:49;;;;;;;3.88;3.50;;;19.50;99.90;;;;;;5033888;28;20626;-77
2022/09/13 03:15:29;;;;;;;3.83;3.13;;;19.50;99.90;;;;;;5034583;28;20194;-77
2022/09/13 03:18:12;;;;;;;6.30;3.35;;;19.50;99.90;;;;;;5033847;28;20202;-76
2022/09/13 03:20:46;;;;;;;4.85;3.63;;;19.50;99.90;;;;;;5033974;28;20214;-78
2022/09/13 03:23:31;;;;;;;6.72;3.97;;;19.60;99.90;;;;;;5033725;28;20240;-77
2022/09/13 03:26:13;;;;;;;4.95;3.42;;;19.60;99.90;;;;;;5034084;28;20225;-76
2022/09/13 03:28:51;;;;;;;3.80;2.83;;;19.50;99.90;;;;;;5034188;28;20576;-78
2022/09/13 03:31:26;;;;;;;4.43;3.55;;;19.50;99.90;;;;;;5021954;28;20638;-77
2022/09/13 03:33:59;;;;;;;3.95;3.30;;;19.50;99.90;;;;;;5013835;28;20285;-76
2022/09/13 03:36:31;;;;;;;6.28;3.20;;;19.50;99.90;;;;;;5030213;28;20202;-78
2022/09/13 03:39:03;;;;;;;3.47;3.17;;;19.50;99.90;;;;;;5033729;28;20705;-77
2022/09/13 03:41:34;;;;;;;6.03;3.65;;;19.50;99.90;;;;;;5032632;28;20277;-77
2022/09/13 03:44:04;;;;;;;4.97;3.15;;;19.50;99.90;;;;;;5022091;28;20620;-78
2022/09/13 03:46:36;;;;;;;4.40;2.80;;;19.40;99.90;;;;;;5014286;28;20628;-77
2022/09/13 03:49:08;;;;;;;6.47;2.95;;;19.50;99.90;;;;;;5017714;28;20198;-78
2022/09/13 03:51:36;;;;;;;2.90;2.60;;;19.50;99.90;;;;;;5034464;28;20198;-78
2022/09/13 03:54:07;;;;;;;6.35;2.97;;;19.50;99.90;;;;;;5021947;28;20211;-78
2022/09/13 03:56:34;;;;;;;2.70;2.50;;;19.40;99.90;;;;;;5013749;28;20608;-77
2022/09/13 03:59:01;;;;;;;5.70;2.60;;;19.50;99.90;;;;;;5014327;28;20195;-78
2022/09/13 04:01:28;;;;;;;3.78;2.60;;;19.50;99.90;;;;;;5012323;28;20230;-78
2022/09/13 04:03:55;;;;;;;3.35;2.67;;;19.40;99.90;;;;;;5013555;28;20262;-78
2022/09/13 04:06:23;;;;;;;3.67;2.20;;;19.40;99.90;;;;;;5013631;28;20477;-78
2022/09/13 04:08:50;;;;;;;4.32;2.20;;;19.30;99.90;;;;;;5012803;28;20476;-78
2022/09/13 04:11:16;;;;;;;3.65;2.10;;;19.30;99.90;;;;;;5013726;28;20596;-78
2022/09/13 04:13:43;;;;;;;2.28;1.80;;;19.30;99.90;;;;;;5013848;28;20210;-78
2022/09/13 04:16:10;;;;;;;3.42;2.00;;;19.30;99.90;;;;;;5013467;28;20210;-78
2022/09/13 04:18:37;;;;;;;4.93;2.00;;;19.30;99.90;;;;;;5013105;28;20221;-77
2022/09/13 04:21:04;;;;;;;7.85;2.50;;;19.40;99.90;;;;;;5013731;28;20219;-76
2022/09/13 04:23:33;;;;;;;4.90;1.90;;;19.40;99.90;;;;;;5013177;28;20204;-78
2022/09/13 04:26:03;;;;;;;3.30;1.60;;;19.40;99.90;;;;;;5023160;28;20210;-78
2022/09/13 04:28:30;;;;;;;2.15;1.52;;;19.40;99.90;;;;;;5032483;28;20190;-78
2022/09/13 04:30:57;;;;;;;5.50;1.85;;;19.30;99.90;;;;;;5012714;28;21052;-78
2022/09/13 04:33:24;;;;;;;2.03;1.30;;;19.30;99.90;;;;;;5013574;28;20202;-78
2022/09/13 04:35:57;;;;;;;3.88;1.75;;;19.20;99.90;;;;;;5013413;28;20290;-78
2022/09/13 04:38:24;;;;;;;4.25;1.63;;;19.20;99.90;;;;;;5011929;28;20254;-79
2022/09/13 04:40:57;;;;;;;7.57;2.20;;;19.20;99.90;;;;;;5013133;28;20253;-79
2022/09/13 04:43:24;;;;;;;4.22;1.80;;;19.10;99.90;;;;;;5013489;28;20199;-78
2022/09/13 04:45:51;;;;;;;3.47;1.70;;;19.10;99.90;;;;;;5014344;28;20214;-82
2022/09/13 04:48:18;;;;;;;4.45;2.00;;;19.00;99.90;;;;;;5033123;28;20777;-77
2022/09/13 04:50:46;;;;;;;3.70;1.92;;;19.00;99.90;;;;;;5032425;28;20195;-76
2022/09/13 04:53:13;;;;;;;4.18;1.88;;;19.00;99.90;;;;;;5021410;28;20211;-77
2022/09/13 04:55:40;;;;;;;5.57;1.95;;;19.00;99.90;;;;;;5025946;22;20265;-79
2022/09/13 04:58:08;;;;;;;2.58;1.23;;;19.00;99.90;;;;;;5031843;28;20237;-78
2022/09/13 05:00:35;;;;;;;7.28;2.08;;;19.00;99.90;;;;;;5031300;28;20233;-77
2022/09/13 05:03:02;;;;;;;3.90;1.77;;;18.90;99.90;;;;;;5032797;28;20206;-78
2022/09/13 05:05:31;;;;;;;3.75;1.48;;;18.90;99.90;;;;;;5030794;28;20496;-77
2022/09/13 05:07:58;;;;;;;4.75;1.70;;;18.90;99.90;;;;;;5032244;28;20198;-77
2022/09/13 05:10:25;;;;;;;3.58;1.35;;;18.90;99.90;;;;;;5031131;28;20207;-78
2022/09/13 05:12:52;;;;;;;4.43;1.77;;;18.90;99.90;;;;;;5031972;28;20203;-77
2022/09/13 05:15:21;;;;;;;2.60;1.30;;;18.80;99.90;;;;;;5032188;28;20613;-78
2022/09/13 05:17:48;;;;;;;2.25;1.17;;;18.80;99.90;;;;;;5031239;28;20199;-78
2022/09/13 05:20:14;;;;;;;3.65;1.10;;;18.80;99.90;;;;;;5031312;28;20223;-78
2022/09/13 05:22:41;;;;;;;4.47;1.48;;;18.80;99.90;;;;;;5032420;28;20212;-78
2022/09/13 05:25:09;;;;;;;4.30;1.60;;;18.70;99.90;;;;;;5032182;28;20206;-78
2022/09/13 05:27:35;;;;;;;3.80;1.30;;;18.80;99.90;;;;;;5023014;28;20203;-78
2022/09/13 05:30:02;;;;;;;6.93;2.05;;;18.70;99.90;;;;;;5012175;28;20218;-78
2022/09/13 05:32:32;;;;;;;4.15;1.40;;;18.70;99.90;;;;;;5012341;28;20204;-76
2022/09/13 05:34:59;;;;;;;2.15;1.15;;;18.70;99.90;;;;;;5011758;28;20203;-79
2022/09/13 05:37:26;;;;;;;2.50;1.20;;;18.70;99.90;;;;;;5023978;28;20207;-79
2022/09/13 05:39:53;;;;;;;1.73;1.20;;;18.70;99.90;;;;;;5031388;28;20213;-79
2022/09/13 05:42:20;;;;;;;5.40;1.50;;;18.70;99.90;;;;;;5031602;28;20490;-77
2022/09/13 05:44:46;;;;;;;4.90;1.73;;;18.70;99.90;;;;;;5032151;28;20194;-78
2022/09/13 05:47:14;;;;;;;1.73;1.50;;;18.70;99.90;;;;;;5030580;28;20207;-78
2022/09/13 05:49:42;;;;;;;5.88;1.90;;;18.70;99.90;;;;;;5031993;28;20293;-78
2022/09/13 05:52:09;;;;;;;2.25;1.15;;;18.70;99.90;;;;;;5030724;28;20209;-78
2022/09/13 05:54:36;;;;;;;1.20;0.93;;;18.70;99.90;;;;;;5030688;28;20203;-78
2022/09/13 05:57:03;;;;;;;3.28;1.38;;;18.70;99.90;;;;;;5030823;28;20242;-78
2022/09/13 05:59:31;;;;;;;2.13;1.55;;;18.70;99.90;;;;;;5031580;28;20209;-79
2022/09/13 06:01:58;;;;;;;1.30;1.20;;;18.70;99.90;;;;;;5030695;28;20230;-78
2022/09/13 06:04:25;;;;;;;2.08;1.40;;;18.70;99.90;;;;;;5031048;28;20210;-78
2022/09/13 06:06:53;;;;;;;2.25;1.20;;;18.70;99.90;;;;;;5030748;28;20225;-76
2022/09/13 06:09:20;;;;;;;2.85;1.50;;;18.70;99.90;;;;;;5031132;28;20202;-78
2022/09/13 06:11:47;;;;;;;5.25;1.40;;;18.80;99.90;;;;;;5031864;28;20221;-79
2022/09/13 06:14:13;;;;;;;2.25;1.20;;;18.80;99.90;;;;;;5030594;28;20211;-78
2022/09/13 06:16:40;;;;;;;1.90;1.00;;;18.80;99.90;;;;;;5019924;28;20293;-78
2022/09/13 06:19:07;;;;;;;2.80;1.55;;;18.80;99.90;;;;;;5011649;28;20202;-77
2022/09/13 06:21:34;;;;;;;2.80;1.38;;;18.80;99.90;;;;;;5011482;28;20219;-77
2022/09/13 06:24:03;;;;;;;1.80;1.00;;;18.80;99.90;;;;;;5029805;28;20289;-77
2022/09/13 06:26:30;;;;;;;2.40;1.23;;;18.80;99.90;;;;;;5031586;28;20194;-78
2022/09/13 06:28:58;;;;;;;3.15;1.23;;;18.80;99.90;;;;;;5030890;28;20219;-79
2022/09/13 06:31:27;;;;;;;3.88;1.52;;;18.80;99.90;;;;;;5030570;28;20195;-78
2022/09/13 06:33:57;;;;;;;1.38;1.23;;;18.90;99.90;;;;;;5028257;28;20206;-76
2022/09/13 06:36:24;;;;;;;3.08;1.35;;;18.90;99.90;;;;;;5024128;28;20638;-78
2022/09/13 06:38:51;;;;;;;2.08;1.10;;;18.90;99.90;;;;;;5026964;28;20206;-78
2022/09/13 06:41:22;;;;;;;3.25;1.48;;;18.90;99.90;;;;;;5031677;28;20233;-79
2022/09/13 06:43:53;;;;;;;2.03;1.30;;;19.00;99.90;;;;;;5030968;28;20585;-78
2022/09/13 06:46:21;;;;;;;1.63;1.23;;;19.00;99.90;;;;;;5030547;28;20203;-77
2022/09/13 06:48:48;;;;;;;3.38;1.27;;;19.10;99.90;;;;;;5031677;28;20214;-78
2022/09/13 06:51:16;;;;;;;1.73;1.10;;;19.10;99.90;;;;;;5030316;28;20614;-79
2022/09/13 06:53:44;;;;;;;2.58;1.20;;;19.10;99.90;;;;;;5029003;28;20207;-78
2022/09/13 06:56:13;;;;;;;4.25;1.35;;;19.20;99.90;;;;;;5026790;28;20230;-78
2022/09/13 06:58:43;;;;;;;2.80;1.20;;;19.20;99.90;;;;;;5027294;28;20305;-80
2022/09/13 07:01:13;;;;;;;1.58;0.98;;;19.20;99.90;;;;;;5025860;28;20231;-78
2022/09/13 07:03:42;;;;;;;3.95;1.15;;;19.20;99.90;;;;;;5031580;28;20269;-78
2022/09/13 07:06:11;;;;;;;1.60;1.17;;;19.20;99.90;;;;;;5031022;28;20209;-78
2022/09/13 07:08:39;;;;;;;2.97;1.00;;;19.30;99.90;;;;;;5042794;28;20220;-79
2022/09/13 07:11:06;;;;;;;2.90;1.42;;;19.30;99.90;;;;;;5045044;28;20643;-77
2022/09/13 07:13:33;;;;;;;2.40;1.10;;;19.40;99.90;;;;;;5031517;28;20218;-78
2022/09/13 07:16:04;;;;;;;5.55;1.60;;;19.40;99.90;;;;;;5037444;28;20214;-79
2022/09/13 07:18:31;;;;;;;3.45;1.75;;;19.40;99.90;;;;;;5030206;28;20617;-78
2022/09/13 07:21:03;;;;;;;3.92;1.40;;;19.50;99.90;;;;;;5040518;28;20221;-76
2022/09/13 07:23:31;;;;;;;4.28;1.40;;;19.50;99.90;;;;;;5053599;28;20202;-78
2022/09/13 07:26:03;;;;;;;3.70;1.30;;;19.50;99.90;;;;;;5053611;28;20194;-78
2022/09/13 07:28:33;;;;;;;3.42;1.13;;;19.60;99.90;;;;;;5051506;28;20526;-79
2022/09/13 07:31:07;;;;;;;3.35;1.30;;;19.60;99.90;;;;;;5034651;28;20205;-78
2022/09/13 07:33:35;;;;;;;3.03;1.00;;;19.70;99.90;;;;;;5033718;28;20290;-78
2022/09/13 07:36:05;;;;;;;3.28;1.40;;;19.70;99.90;;;;;;5034341;28;20203;-77
2022/09/13 07:38:33;;;;;;;4.70;1.38;;;19.80;99.90;;;;;;5033731;28;20202;-78
2022/09/13 07:41:00;;;;;;;1.27;1.02;;;19.80;99.90;;;;;;5033970;28;20236;-76
2022/09/13 07:43:27;;;;;;;2.40;1.10;;;19.80;99.90;;;;;;5033895;28;20225;-78
2022/09/13 07:45:58;;;;;;;3.58;1.70;;;19.90;99.90;;;;;;5033669;28;20637;-77
2022/09/13 07:48:27;;;;;;;3.72;1.13;;;19.90;99.90;;;;;;5034602;28;20324;-75
2022/09/13 07:50:58;;;;;;;4.78;1.50;;;20.00;99.90;;;;;;5034193;28;20225;-76
2022/09/13 07:53:25;;;;;;;4.07;1.50;;;20.00;99.90;;;;;;5033873;28;20595;-76
2022/09/13 07:55:52;;;;;;;3.95;1.58;;;20.10;99.90;;;;;;5033100;28;20247;-77
2022/09/13 07:58:19;;;;;;;3.58;1.50;;;20.20;99.90;;;;;;5032813;28;20198;-78
2022/09/13 08:00:46;;;;;;;4.65;1.70;;;20.10;99.90;;;;;;5032978;28;20230;-76
2022/09/13 08:03:13;;;;;;;6.95;2.10;;;20.10;99.90;;;;;;5032994;28;20216;-76
2022/09/13 08:05:41;;;;;;;1.50;1.30;;;20.10;99.90;;;;;;5033874;28;20482;-76
2022/09/13 08:08:08;;;;;;;2.72;1.50;;;20.10;99.90;;;;;;5032540;28;20218;-75
2022/09/13 08:10:35;;;;;;;5.57;1.63;;;20.20;99.90;;;;;;5033922;28;20191;-78
2022/09/13 08:13:02;;;;;;;2.00;1.23;;;20.20;99.90;;;;;;5032956;28;20328;-77
2022/09/13 08:15:29;;;;;;;2.90;1.13;;;20.30;99.90;;;;;;5033207;28;20203;-77
2022/09/13 08:17:55;;;;;;;3.20;1.42;;;20.40;99.90;;;;;;5032912;28;20208;-77
2022/09/13 08:20:22;;;;;;;4.72;1.58;;;20.40;99.90;;;;;;5033575;28;20213;-77
2022/09/13 08:22:50;;;;;;;3.83;1.38;;;20.50;99.90;;;;;;5031815;28;20280;-78
2022/09/13 08:25:17;;;;;;;2.42;1.00;;;20.60;99.90;;;;;;5033725;28;20206;-78
2022/09/13 08:27:44;;;;;;;2.28;1.13;;;20.80;99.90;;;;;;5033245;28;20674;-78
2022/09/13 08:30:12;;;;;;;6.85;1.30;;;21.00;99.90;;;;;;5030900;28;20222;-78
2022/09/13 08:32:39;;;;;;;2.10;1.20;;;20.90;99.90;;;;;;5033231;28;20202;-77
2022/09/13 08:35:06;;;;;;;2.47;1.17;;;20.90;99.90;;;;;;5033039;28;20201;-78
2022/09/13 08:37:34;;;;;;;4.43;1.05;;;20.80;99.90;;;;;;5032587;28;20290;-78
2022/09/13 08:40:02;;;;;;;2.92;1.20;;;20.70;84.40;;;;;;5032852;28;20210;-76
2022/09/13 08:42:50;;;;;;;2.92;1.05;;;20.80;99.90;;;;;;5033372;28;20219;-75
2022/09/13 08:45:17;;;;;;;4.30;1.02;;;20.80;81.10;;;;;;5032227;28;20617;-76
2022/09/13 08:47:50;;;;;;;2.95;1.02;;;20.70;84.10;;;;;;5033203;28;20203;-75
2022/09/13 08:50:20;;;;;;;2.40;0.90;;;20.70;99.90;;;;;;5031916;28;20316;-77
2022/09/13 08:52:57;;;;;;;2.47;1.02;;;20.80;94.80;;;;;;5033104;28;20201;-78
2022/09/13 08:55:34;;;;;;;2.45;0.75;;;20.80;84.20;;;;;;5032374;28;20207;-77
2022/09/13 08:58:07;;;;;;;4.00;1.23;;;20.90;42.80;;;;;;5031737;28;20202;-77
2022/09/13 09:00:39;;;;;;;3.30;0.77;;;21.00;1.00;;;;;;5032874;28;20198;-77
2022/09/13 09:03:18;;;;;;;2.65;0.93;;;21.00;1.00;;;;;;5032024;28;20732;-77
2022/09/13 09:05:47;;;;;;;3.03;0.98;;;21.20;1.00;;;;;;5032130;28;20285;-79
2022/09/13 09:08:20;;;;;;;3.35;1.00;;;21.20;1.00;;;;;;5031858;28;20754;-77
2022/09/13 09:10:51;;;;;;;4.00;0.98;;;21.20;1.00;;;;;;5032169;28;20186;-77
2022/09/13 09:13:26;;;;;;;2.53;0.93;;;21.30;1.00;;;;;;5032678;28;20198;-77
2022/09/13 09:15:57;;;;;;;1.67;0.70;;;21.50;1.00;;;;;;5032178;28;20201;-76
2022/09/13 09:18:29;;;;;;;2.63;1.00;;;21.60;1.00;;;;;;5031788;28;20218;-78
2022/09/13 09:20:58;;;;;;;3.35;0.90;;;21.60;1.00;;;;;;5031553;28;20199;-77
2022/09/13 09:23:31;;;;;;;2.53;0.80;;;21.70;1.00;;;;;;5032065;28;20583;-77
2022/09/13 09:26:14;;;;;;;3.70;0.80;;;21.70;1.00;;;;;;5030806;28;20211;-76
2022/09/13 09:28:41;;;;;;;2.38;0.60;;;21.70;99.90;;;;;;5031837;28;20219;-77
2022/09/13 09:31:14;;;;;;;5.40;1.50;;;21.70;1.00;;;;;;5031724;28;20239;-77
2022/09/13 09:33:53;;;;;;;3.28;0.80;;;21.70;1.00;;;;;;5030907;28;20565;-77
2022/09/13 09:36:29;;;;;;;3.65;0.95;;;21.70;99.90;;;;;;5029351;28;20515;-78
2022/09/13 09:38:56;;;;;;;3.35;0.88;;;21.80;99.90;;;;;;5031016;28;20237;-77
2022/09/13 09:41:30;;;;;;;2.10;0.95;;;21.80;1.00;;;;;;5032051;28;20226;-77
2022/09/13 09:44:03;;;;;;;4.20;1.00;;;21.90;1.00;;;;;;5031413;28;20272;-77
2022/09/13 09:46:35;;;;;;;2.08;0.68;;;21.90;1.00;;;;;;5031271;28;20210;-77
2022/09/13 09:50:07;;;;;;;4.10;1.00;;;21.90;99.90;;;;;;5032142;28;20194;-77
2022/09/13 09:51:59;;;;;;;2.45;0.80;;;22.00;99.90;;;;;;5031153;28;20590;-75
2022/09/13 09:54:27;;;;;;;2.47;0.80;;;22.10;99.90;;;;;;5030908;28;20195;-76
2022/09/13 09:56:56;;;;;;;3.53;0.80;;;22.20;99.90;;;;;;5030973;28;20242;-77
2022/09/13 09:59:30;;;;;;;4.93;1.20;;;22.30;74.10;;;;;;5031826;28;20244;-77
2022/09/13 10:01:57;;;;;;;3.33;0.73;;;22.50;1.00;;;;;;5032216;28;20226;-76
2022/09/13 10:04:25;;;;;;;3.78;1.00;;;22.50;1.00;;;;;;5030926;28;20220;-77
2022/09/13 10:07:10;;;;;;;3.80;0.95;;;22.60;99.90;;;;;;5032023;28;20191;-76
2022/09/13 10:09:38;;;;;;;3.50;0.98;;;22.60;99.90;;;;;;5032343;28;20482;-75
2022/09/13 10:12:07;;;;;;;5.55;1.17;;;22.60;1.00;;;;;;5031743;28;20896;-76
2022/09/13 10:14:39;;;;;;;3.53;0.90;;;22.70;1.00;;;;;;5031121;28;20199;-77
2022/09/13 10:17:16;;;;;;;2.55;0.82;;;22.70;99.90;;;;;;5030978;28;20222;-79
2022/09/13 10:19:53;;;;;;;3.30;1.00;;;22.70;1.00;;;;;;5031938;28;20195;-76
2022/09/13 10:22:21;;;;;;;3.80;0.80;;;22.80;99.90;;;;;;5030440;28;20221;-77
2022/09/13 10:24:49;;;;;;;3.25;0.88;;;22.80;99.90;;;;;;5031919;28;20206;-78
2022/09/13 10:27:25;;;;;;;6.78;1.20;;;23.00;99.90;;;;;;5031392;28;20206;-77
2022/09/13 10:29:58;;;;;;;3.25;0.80;;;23.00;1.00;;;;;;5031006;28;20638;-77
2022/09/13 10:32:25;;;;;;;1.13;0.68;;;22.90;99.90;;;;;;5031470;28;20195;-78
2022/09/13 10:34:53;;;;;;;3.15;1.10;;;23.10;99.90;;;;;;5028862;28;20543;-77
2022/09/13 10:37:24;;;;;;;2.65;0.80;;;23.10;1.00;;;;;;5049807;28;20205;-77
2022/09/13 10:39:56;;;;;;;2.50;0.80;;;23.10;99.90;;;;;;5051695;28;20202;-77
2022/09/13 10:42:27;;;;;;;4.20;1.00;;;23.20;1.00;;;;;;5038012;28;20218;-77
2022/09/13 10:44:56;;;;;;;3.65;1.10;;;23.30;99.90;;;;;;5031275;28;20521;-77
2022/09/13 10:47:27;;;;;;;3.00;0.80;;;23.30;1.00;;;;;;5032075;28;20215;-77
2022/09/13 10:49:56;;;;;;;5.50;1.20;;;23.30;99.90;;;;;;5050268;28;20202;-77
2022/09/13 10:52:25;;;;;;;1.58;0.52;;;23.40;1.00;;;;;;5034669;28;20323;-75
2022/09/13 10:54:52;;;;;;;5.47;0.90;;;23.40;99.90;;;;;;5033388;28;20202;-77
2022/09/13 10:57:33;;;;;;;2.92;1.10;;;23.30;99.90;;;;;;5033310;28;20269;-76
2022/09/13 11:00:00;;;;;;;2.58;0.90;;;23.30;99.90;;;;;;5034922;28;20194;-77
2022/09/13 11:02:48;;;;;;;3.33;0.88;;;23.30;1.00;;;;;;5034128;28;20642;-76
2022/09/13 11:05:22;;;;;;;3.58;0.82;;;23.40;99.90;;;;;;5033456;28;20731;-76
2022/09/13 11:08:14;;;;;;;4.05;0.80;;;23.40;99.90;;;;;;5034746;28;20182;-76
2022/09/13 11:10:49;;;;;;;4.10;1.00;;;23.30;1.00;;;;;;5032534;28;20893;-76
2022/09/13 11:13:29;;;;;;;3.53;1.00;;;23.30;99.90;;;;;;5034726;28;20606;-76
2022/09/13 11:16:00;;;;;;;1.90;0.75;;;23.40;99.90;;;;;;5034865;28;20286;-77
2022/09/13 11:18:41;;;;;;;4.78;0.82;;;23.50;93.40;;;;;;5033382;28;20186;-76
2022/09/13 11:21:24;;;;;;;3.05;1.00;;;23.40;99.90;;;;;;5033755;28;20199;-76
2022/09/13 11:24:17;;;;;;;2.33;0.88;;;23.30;99.90;;;;;;5032347;28;20195;-77
2022/09/13 11:26:55;;;;;;;2.58;0.82;;;23.50;99.90;;;;;;5041244;28;20216;-77
2022/09/13 11:29:40;;;;;;;4.00;1.00;;;23.70;99.90;;;;;;5052938;28;20221;-77
2022/09/13 11:32:19;;;;;;;7.10;1.25;;;23.70;31.30;;;;;;5032898;28;20215;-78
2022/09/13 11:34:54;;;;;;;5.30;0.80;;;23.80;80.80;;;;;;5020842;28;20213;-77
2022/09/13 11:37:34;;;;;;;4.93;1.08;;;23.90;98.00;;;;;;5033761;28;20202;-79
2022/09/13 11:40:18;;;;;;;3.08;0.93;;;23.90;99.90;;;;;;5030672;28;20344;-76
2022/09/13 11:42:52;;;;;;;2.97;0.95;;;24.00;1.00;;;;;;5053451;28;20217;-77
2022/09/13 11:45:24;;;;;;;2.88;0.88;;;24.00;1.00;;;;;;5053838;28;20274;-77
2022/09/13 11:48:06;;;;;;;3.38;0.85;;;23.90;1.00;;;;;;5039621;28;20305;-77
2022/09/13 11:50:38;;;;;;;2.25;1.00;;;23.90;1.00;;;;;;5032695;28;20696;-77
2022/09/13 11:53:37;;;;;;;2.58;0.80;;;24.00;1.00;;;;;;5032338;28;20560;-77
2022/09/13 11:56:08;;;;;;;4.13;0.80;;;24.10;1.00;;;;;;5032919;28;20326;-76
2022/09/13 11:58:39;;;;;;;1.65;0.80;;;24.20;1.00;;;;;;5032800;28;20212;-76
2022/09/13 12:01:10;;;;;;;1.40;0.70;;;24.30;1.00;;;;;;5032416;28;20213;-77
2022/09/13 12:03:43;;;;;;;2.90;1.40;;;24.40;1.00;;;;;;5039225;28;20267;-77
2022/09/13 12:06:15;;;;;;;2.47;0.82;;;24.20;1.00;;;;;;5038830;28;20225;-76
2022/09/13 12:08:46;;;;;;;3.60;1.20;;;24.10;1.00;;;;;;5043863;28;20267;-77
2022/09/13 12:11:19;;;;;;;6.43;0.95;;;24.10;1.00;;;;;;5029890;28;20218;-76
2022/09/13 12:13:51;;;;;;;3.33;0.98;;;24.00;1.00;;;;;;5032017;28;20213;-76
2022/09/13 12:16:25;;;;;;;5.80;1.42;;;24.00;1.00;;;;;;5030435;28;20211;-76
2022/09/13 12:18:55;;;;;;;4.20;0.85;;;24.00;1.00;;;;;;5046846;28;20216;-77
2022/09/13 12:21:25;;;;;;;0.77;0.63;;;23.80;1.00;;;;;;5031685;28;20624;-76
2022/09/13 12:24:00;;;;;;;2.55;0.90;;;23.80;1.00;;;;;;5032590;28;20226;-75
2022/09/13 12:26:30;;;;;;;2.92;0.80;;;23.80;1.00;;;;;;5031597;28;20217;-77
2022/09/13 12:29:02;;;;;;;3.65;0.82;;;23.80;1.00;;;;;;5032320;28;20230;-77
2022/09/13 12:31:31;;;;;;;3.88;1.00;;;23.70;1.00;;;;;;5032569;28;20217;-77
2022/09/13 12:33:59;;;;;;;3.17;0.90;;;23.50;1.00;;;;;;5032234;28;20205;-77
2022/09/13 12:37:04;;;;;;;3.28;1.10;;;23.40;1.00;;;;;;5040188;28;20213;-78
2022/09/13 12:40:23;;;;;;;3.35;0.70;;;23.40;1.00;;;;;;5048333;28;20221;-77
2022/09/13 12:43:24;;;;;;;3.58;0.93;;;23.50;1.00;;;;;;5031452;28;20238;-76
2022/09/13 12:46:17;;;;;;;4.22;1.05;;;23.50;1.00;;;;;;5013134;28;20273;-76
2022/09/13 12:49:16;;;;;;;6.47;1.50;;;23.50;1.00;;;;;;5013398;28;20199;-76
2022/09/13 12:52:01;;;;;;;4.25;1.40;;;23.60;1.00;;;;;;5025853;28;20649;-78
2022/09/13 12:55:04;;;;;;;2.63;0.82;;;23.60;1.00;;;;;;5032541;28;20198;-77
2022/09/13 12:57:41;;;;;;;3.20;1.13;;;23.70;1.00;;;;;;5028691;28;20525;-78
2022/09/13 13:00:18;;;;;;;2.15;0.77;;;23.80;1.00;;;;;;5029258;28;20206;-77
2022/09/13 13:02:53;;;;;;;5.55;1.02;;;23.70;1.00;;;;;;5031913;28;20222;-77
2022/09/13 13:05:27;;;;;;;3.95;0.73;;;23.70;1.00;;;;;;5031944;28;20205;-76
2022/09/13 13:07:57;;;;;;;1.88;0.73;;;23.80;1.00;;;;;;5030597;28;20285;-77
2022/09/13 13:10:29;;;;;;;3.20;1.20;;;23.70;1.00;;;;;;5030869;28;20214;-77
2022/09/13 13:13:09;;;;;;;3.90;1.08;;;23.70;1.00;;;;;;5031775;28;20226;-77